createdAt,value
2022-12-24T00:01:20.812Z,24.77
2022-12-24T00:03:48.169Z,23.73
2022-12-24T00:06:24.183Z,23.23
2022-12-24T00:08:51.506Z,26.97
2022-12-24T00:11:19.450Z,25.53
2022-12-24T00:13:47.015Z,27.87
2022-12-24T00:16:14.295Z,25.73
2022-12-24T00:18:45.866Z,32.20
2022-12-24T00:21:15.515Z,27.33
2022-12-24T00:23:42.724Z,27.00
2022-12-24T00:26:09.773Z,25.80
2022-12-24T00:28:36.835Z,28.27
2022-12-24T00:31:16.724Z,23.73
2022-12-24T00:33:46.318Z,33.27
2022-12-24T00:36:13.953Z,27.40
2022-12-24T00:38:40.995Z,21.73
2022-12-24T00:41:26.068Z,26.70
2022-12-24T00:44:10.340Z,22.90
2022-12-24T00:46:40.321Z,26.97
2022-12-24T00:49:09.460Z,21.77
2022-12-24T00:51:37.363Z,30.37
2022-12-24T00:54:05.263Z,24.33
2022-12-24T00:56:32.840Z,27.37
2022-12-24T00:59:00.263Z,28.50
2022-12-24T01:01:28.487Z,30.37
2022-12-24T01:04:16.606Z,29.13
2022-12-24T01:06:44.163Z,19.93
2022-12-24T01:09:11.463Z,29.17
2022-12-24T01:11:38.494Z,28.60
2022-12-24T01:14:05.579Z,26.87
2022-12-24T01:16:32.726Z,30.50
2022-12-24T01:18:59.869Z,25.40
2022-12-24T01:21:27.310Z,27.97
2022-12-24T01:23:54.516Z,23.47
2022-12-24T01:26:21.737Z,28.23
2022-12-24T01:28:49.036Z,28.10
2022-12-24T01:31:19.220Z,29.27
2022-12-24T01:33:48.939Z,28.40
2022-12-24T01:36:16.371Z,23.20
2022-12-24T01:38:43.687Z,31.67
2022-12-24T01:41:42.093Z,29.00
2022-12-24T01:44:36.627Z,24.73
2022-12-24T01:47:09.961Z,22.93
2022-12-24T01:49:42.435Z,20.87
2022-12-24T01:52:35.590Z,26.73
2022-12-24T01:55:10.897Z,29.00
2022-12-24T01:57:48.805Z,30.50
2022-12-24T02:00:17.003Z,24.90
2022-12-24T02:02:48.547Z,29.87
2022-12-24T02:05:24.024Z,23.87
2022-12-24T02:07:52.177Z,31.47
2022-12-24T02:10:19.437Z,32.37
2022-12-24T02:12:47.519Z,28.77
2022-12-24T02:15:19.326Z,22.93
2022-12-24T02:18:15.045Z,29.03
2022-12-24T02:20:56.944Z,24.83
2022-12-24T02:23:49.994Z,34.17
2022-12-24T02:26:34.455Z,25.77
2022-12-24T02:29:31.721Z,24.60
2022-12-24T02:32:06.024Z,36.87
2022-12-24T02:34:48.313Z,26.13
2022-12-24T02:37:25.181Z,28.43
2022-12-24T02:40:22.237Z,33.57
2022-12-24T02:42:55.607Z,28.63
2022-12-24T02:45:32.934Z,27.40
2022-12-24T02:48:00.926Z,27.60
2022-12-24T02:50:28.790Z,33.00
2022-12-24T02:52:55.856Z,24.63
2022-12-24T02:55:53.762Z,24.33
2022-12-24T02:58:54.904Z,26.53
2022-12-24T03:01:30.992Z,21.83
2022-12-24T03:04:41.308Z,20.13
2022-12-24T03:07:28.311Z,23.33
2022-12-24T03:10:42.015Z,21.87
2022-12-24T03:13:18.729Z,22.40
2022-12-24T03:15:47.437Z,25.23
2022-12-24T03:18:19.410Z,16.60
2022-12-24T03:21:05.606Z,19.80
2022-12-24T03:23:34.316Z,19.10
2022-12-24T03:26:07.364Z,18.47
2022-12-24T03:28:36.826Z,18.10
2022-12-24T03:31:05.992Z,17.07
2022-12-24T03:33:33.884Z,18.40
2022-12-24T03:36:01.121Z,19.33
2022-12-24T03:38:28.255Z,15.20
2022-12-24T03:40:55.332Z,15.67
2022-12-24T03:43:22.362Z,14.07
2022-12-24T03:45:49.447Z,25.43
2022-12-24T03:48:16.523Z,17.03
2022-12-24T03:50:43.530Z,20.40
2022-12-24T03:53:10.883Z,20.03
2022-12-24T03:55:39.410Z,16.60
2022-12-24T03:58:06.875Z,20.67
2022-12-24T04:00:33.906Z,17.60
2022-12-24T04:03:01.015Z,15.60
2022-12-24T04:05:28.299Z,16.63
2022-12-24T04:07:55.471Z,20.60
2022-12-24T04:10:22.468Z,20.07
2022-12-24T04:12:49.549Z,21.57
2022-12-24T04:15:16.547Z,20.43
2022-12-24T04:17:43.560Z,24.17
2022-12-24T04:20:11.573Z,21.20
2022-12-24T04:22:38.593Z,25.83
2022-12-24T04:25:06.435Z,21.60
2022-12-24T04:27:33.398Z,20.40
2022-12-24T04:30:00.487Z,24.57
2022-12-24T04:32:27.824Z,25.00
2022-12-24T04:34:54.899Z,23.37
2022-12-24T04:37:21.963Z,23.60
2022-12-24T04:39:49.023Z,22.70
2022-12-24T04:42:16.004Z,22.03
2022-12-24T04:44:42.961Z,28.00
2022-12-24T04:47:10.919Z,24.40
2022-12-24T04:49:37.956Z,22.60
2022-12-24T04:52:05.818Z,28.80
2022-12-24T04:54:32.934Z,28.13
2022-12-24T04:57:00.000Z,29.50
2022-12-24T04:59:27.110Z,20.13
2022-12-24T05:01:54.334Z,19.00
2022-12-24T05:04:21.378Z,25.30
2022-12-24T05:06:48.451Z,25.87
2022-12-24T05:09:15.546Z,25.90
2022-12-24T05:11:42.513Z,17.30
2022-12-24T05:14:09.675Z,17.07
2022-12-24T05:16:38.598Z,19.77
2022-12-24T05:19:05.904Z,25.90
2022-12-24T05:21:32.992Z,26.53
2022-12-24T05:24:18.389Z,22.57
2022-12-24T05:26:53.153Z,22.40
2022-12-24T05:29:20.912Z,24.40
2022-12-24T05:31:47.995Z,19.00
2022-12-24T05:34:16.712Z,22.70
2022-12-24T05:36:44.505Z,23.67
2022-12-24T05:39:18.930Z,28.77
2022-12-24T05:41:46.961Z,17.30
2022-12-24T05:44:14.889Z,19.33
2022-12-24T05:46:42.784Z,22.80
2022-12-24T05:49:10.130Z,22.70
2022-12-24T05:51:37.320Z,29.27
2022-12-24T05:54:05.105Z,23.23
2022-12-24T05:56:32.881Z,19.23
2022-12-24T05:59:00.102Z,20.73
2022-12-24T06:01:27.946Z,22.43
2022-12-24T06:03:56.691Z,21.07
2022-12-24T06:06:27.182Z,21.40
2022-12-24T06:08:55.987Z,25.10
2022-12-24T06:11:26.506Z,18.03
2022-12-24T06:13:54.177Z,20.67
2022-12-24T06:16:24.240Z,27.07
2022-12-24T06:18:51.872Z,23.83
2022-12-24T06:21:19.576Z,18.80
2022-12-24T06:23:47.589Z,26.20
2022-12-24T06:26:19.331Z,21.83
2022-12-24T06:28:50.940Z,19.23
2022-12-24T06:31:22.190Z,21.53
2022-12-24T06:33:50.039Z,27.40
2022-12-24T06:36:22.264Z,26.00
2022-12-24T06:38:50.517Z,29.37
2022-12-24T06:41:19.175Z,22.70
2022-12-24T06:43:49.032Z,16.60
2022-12-24T06:46:16.997Z,24.30
2022-12-24T06:48:45.662Z,25.47
2022-12-24T06:51:14.686Z,26.20
2022-12-24T06:53:41.892Z,29.30
2022-12-24T06:56:12.874Z,21.70
2022-12-24T06:58:41.142Z,24.00
2022-12-24T07:01:11.926Z,32.50
2022-12-24T07:03:40.026Z,29.07
2022-12-24T07:06:28.960Z,24.43
2022-12-24T07:08:56.398Z,24.13
2022-12-24T07:11:25.431Z,26.03
2022-12-24T07:13:52.907Z,28.27
2022-12-24T07:16:20.275Z,28.37
2022-12-24T07:18:47.562Z,29.17
2022-12-24T07:21:14.704Z,24.67
2022-12-24T07:23:41.923Z,32.00
2022-12-24T07:26:09.025Z,27.97
2022-12-24T07:28:36.044Z,25.67
2022-12-24T07:31:03.508Z,28.53
2022-12-24T07:33:30.806Z,26.87
2022-12-24T07:36:00.265Z,26.83
2022-12-24T07:38:27.652Z,25.67
2022-12-24T07:40:54.696Z,33.37
2022-12-24T07:43:21.787Z,28.43
2022-12-24T07:45:48.910Z,26.27
2022-12-24T07:48:15.989Z,25.63
2022-12-24T07:50:43.259Z,28.30
2022-12-24T07:53:10.403Z,29.47
2022-12-24T07:55:37.492Z,29.80
2022-12-24T07:58:04.582Z,23.50
2022-12-24T08:00:31.752Z,26.47
2022-12-24T08:03:00.206Z,27.90
2022-12-24T08:05:29.144Z,26.27
2022-12-24T08:07:56.453Z,29.77
2022-12-24T08:10:23.522Z,27.70
2022-12-24T08:12:50.955Z,22.20
2022-12-24T08:15:18.503Z,28.30
2022-12-24T08:17:45.920Z,21.23
2022-12-24T08:20:13.118Z,32.60
2022-12-24T08:22:40.403Z,28.13
2022-12-24T08:25:08.563Z,19.13
2022-12-24T08:27:36.140Z,32.97
2022-12-24T08:30:05.919Z,27.00
2022-12-24T08:32:32.996Z,22.97
2022-12-24T08:35:00.056Z,24.30
2022-12-24T08:37:27.191Z,21.53
2022-12-24T08:39:54.634Z,27.93
2022-12-24T08:42:21.809Z,28.57
2022-12-24T08:44:48.913Z,24.13
2022-12-24T08:47:16.735Z,32.53
2022-12-24T08:49:44.040Z,24.57
2022-12-24T08:52:11.345Z,24.83
2022-12-24T08:54:38.400Z,28.77
2022-12-24T08:57:05.403Z,29.53
2022-12-24T08:59:32.437Z,26.87
2022-12-24T09:01:59.949Z,27.67
2022-12-24T09:04:27.220Z,24.80
2022-12-24T09:06:54.233Z,26.23
2022-12-24T09:09:21.312Z,30.43
2022-12-24T09:11:48.627Z,22.63
2022-12-24T09:14:15.707Z,25.83
2022-12-24T09:16:42.823Z,28.37
2022-12-24T09:19:09.898Z,30.13
2022-12-24T09:21:37.343Z,28.40
2022-12-24T09:24:05.475Z,26.40
2022-12-24T09:26:32.713Z,27.13
2022-12-24T09:29:01.492Z,33.47
2022-12-24T09:31:29.493Z,21.60
2022-12-24T09:33:56.645Z,28.80
2022-12-24T09:36:23.845Z,23.53
2022-12-24T09:38:51.103Z,29.47
2022-12-24T09:41:57.902Z,27.13
2022-12-24T09:44:48.939Z,21.43
2022-12-24T09:47:25.458Z,27.90
2022-12-24T09:49:56.039Z,28.67
2022-12-24T09:52:41.356Z,27.07
2022-12-24T09:55:55.666Z,22.63
2022-12-24T09:58:50.905Z,30.43
2022-12-24T10:01:19.252Z,22.23
2022-12-24T10:03:47.487Z,33.43
2022-12-24T10:06:28.807Z,23.03
2022-12-24T10:09:16.780Z,25.83
2022-12-24T10:12:01.267Z,26.60
2022-12-24T10:14:54.257Z,26.73
2022-12-24T10:17:54.547Z,28.17
2022-12-24T10:20:55.850Z,27.92
2022-12-24T10:24:34.681Z,24.80
2022-12-24T10:27:11.907Z,26.17
2022-12-24T10:29:46.014Z,28.40
2022-12-24T10:32:21.374Z,31.57
2022-12-24T10:35:14.692Z,29.13
2022-12-24T10:37:44.985Z,32.73
2022-12-24T10:40:37.229Z,33.83
2022-12-24T10:43:33.670Z,30.83
2022-12-24T10:46:32.383Z,25.80
2022-12-24T10:49:06.581Z,24.30
2022-12-24T10:51:56.565Z,25.93
2022-12-24T10:54:28.131Z,27.33
2022-12-24T10:57:01.777Z,22.17
2022-12-24T10:59:40.671Z,23.85
2022-12-24T11:02:28.647Z,22.70
2022-12-24T11:04:56.337Z,22.92
2022-12-24T11:07:24.284Z,17.73
2022-12-24T11:10:07.629Z,30.23
2022-12-24T11:13:00.317Z,26.33
2022-12-24T11:15:35.151Z,25.15
2022-12-24T11:18:14.757Z,22.38
2022-12-24T11:20:48.963Z,21.70
2022-12-24T11:23:17.949Z,26.45
2022-12-24T11:25:50.781Z,21.90
2022-12-24T11:28:24.964Z,22.75
2022-12-24T11:31:03.144Z,27.00
2022-12-24T11:33:32.052Z,21.70
2022-12-24T11:36:06.716Z,27.55
2022-12-24T11:38:35.302Z,36.67
2022-12-24T11:41:10.592Z,23.60
2022-12-24T11:43:45.420Z,28.25
2022-12-24T11:46:27.299Z,21.38
2022-12-24T11:49:12.438Z,25.63
2022-12-24T11:52:11.045Z,24.00
2022-12-24T11:55:10.291Z,24.58
2022-12-24T11:58:27.653Z,16.85
2022-12-24T12:01:29.746Z,25.08
2022-12-24T12:04:31.522Z,21.65
2022-12-24T12:07:20.653Z,22.42
2022-12-24T12:10:00.556Z,20.17
2022-12-24T12:12:45.410Z,22.65
2022-12-24T12:15:16.864Z,24.35
2022-12-24T12:17:58.011Z,21.38
2022-12-24T12:20:49.065Z,20.02
2022-12-24T12:23:30.921Z,26.77
2022-12-24T12:26:04.855Z,25.88
2022-12-24T12:28:52.609Z,26.75
2022-12-24T12:31:42.925Z,24.52
2022-12-24T12:34:26.745Z,24.05
2022-12-24T12:37:15.060Z,24.70
2022-12-24T12:39:43.197Z,20.67
2022-12-24T12:42:37.506Z,20.40
2022-12-24T12:45:29.404Z,20.70
2022-12-24T12:48:09.077Z,15.95
2022-12-24T12:50:48.124Z,17.90
2022-12-24T12:54:03.098Z,19.73
2022-12-24T12:56:39.829Z,19.45
2022-12-24T13:00:03.752Z,19.25
2022-12-24T13:03:05.637Z,16.23
2022-12-24T13:06:35.124Z,15.30
2022-12-24T13:09:11.171Z,25.55
2022-12-24T13:11:50.261Z,18.73
2022-12-24T13:14:44.482Z,17.80
2022-12-24T13:17:49.106Z,17.42
2022-12-24T13:20:24.590Z,20.48
2022-12-24T13:22:58.509Z,18.33
2022-12-24T13:25:51.345Z,20.42
2022-12-24T13:28:38.880Z,18.23
2022-12-24T13:31:11.984Z,20.02
2022-12-24T13:33:39.497Z,19.65
2022-12-24T13:36:17.698Z,23.80
2022-12-24T13:38:54.917Z,25.55
2022-12-24T13:41:39.976Z,20.73
2022-12-24T13:44:12.669Z,18.58
2022-12-24T13:47:05.208Z,21.05
2022-12-24T13:49:40.558Z,21.92
2022-12-24T13:52:21.781Z,27.55
2022-12-24T13:54:54.684Z,19.15
2022-12-24T13:58:03.852Z,15.68
2022-12-24T14:00:41.520Z,17.90
2022-12-24T14:03:14.715Z,15.30
2022-12-24T14:05:45.073Z,18.27
2022-12-24T14:08:32.272Z,19.33
2022-12-24T14:11:19.830Z,18.08
2022-12-24T14:13:46.787Z,21.98
2022-12-24T14:16:28.866Z,12.40
2022-12-24T14:19:02.339Z,17.23
2022-12-24T14:21:37.239Z,19.95
2022-12-24T14:24:15.819Z,23.13
2022-12-24T14:27:05.976Z,24.17
2022-12-24T14:29:41.703Z,19.35
2022-12-24T14:32:16.448Z,14.25
2022-12-24T14:34:44.602Z,19.67
2022-12-24T14:37:13.944Z,16.70
2022-12-24T14:39:49.568Z,17.40
2022-12-24T14:42:59.589Z,16.50
2022-12-24T14:45:43.474Z,17.00
2022-12-24T14:49:05.179Z,20.10
2022-12-24T14:52:05.498Z,21.17
2022-12-24T14:54:42.922Z,22.37
2022-12-24T14:57:14.965Z,19.47
2022-12-24T15:00:02.251Z,23.47
2022-12-24T15:02:43.177Z,24.57
2022-12-24T15:05:29.644Z,25.27
2022-12-24T15:08:08.987Z,22.37
2022-12-24T15:10:41.666Z,25.70
2022-12-24T15:13:24.080Z,24.03
2022-12-24T15:15:54.232Z,23.23
2022-12-24T15:18:28.074Z,21.33
2022-12-24T15:21:03.965Z,18.83
2022-12-24T15:23:37.099Z,21.33
2022-12-24T15:26:30.019Z,20.77
2022-12-24T15:29:03.539Z,21.10
2022-12-24T15:31:31.599Z,20.30
2022-12-24T15:33:59.618Z,19.10
2022-12-24T15:36:36.729Z,24.57
2022-12-24T15:39:13.807Z,23.00
2022-12-24T15:42:03.007Z,26.43
2022-12-24T15:44:38.786Z,23.13
2022-12-24T15:47:14.495Z,27.80
2022-12-24T15:49:49.039Z,28.67
2022-12-24T15:52:20.853Z,22.93
2022-12-24T15:54:55.461Z,21.37
2022-12-24T15:57:30.476Z,23.50
2022-12-24T16:00:00.001Z,31.37
2022-12-24T16:02:35.352Z,25.83
2022-12-24T16:05:32.997Z,20.23
2022-12-24T16:08:24.194Z,22.80
2022-12-24T16:11:05.450Z,22.17
2022-12-24T16:13:40.506Z,26.83
2022-12-24T16:16:14.544Z,19.53
2022-12-24T16:18:59.801Z,23.53
2022-12-24T16:21:42.528Z,30.30
2022-12-24T16:24:25.939Z,21.40
2022-12-24T16:26:54.254Z,21.93
2022-12-24T16:29:22.639Z,24.43
2022-12-24T16:31:58.066Z,26.30
2022-12-24T16:34:31.454Z,17.27
2022-12-24T16:36:59.924Z,28.83
2022-12-24T16:39:33.723Z,23.20
2022-12-24T16:42:22.814Z,23.63
2022-12-24T16:44:53.827Z,21.53
2022-12-24T16:47:33.801Z,20.77
2022-12-24T16:50:08.329Z,23.77
2022-12-24T16:52:35.410Z,20.83
2022-12-24T16:55:02.868Z,29.10
2022-12-24T16:57:32.958Z,23.70
2022-12-24T17:00:00.031Z,22.43
2022-12-24T17:02:27.206Z,24.70
2022-12-24T17:04:55.196Z,22.63
2022-12-24T17:07:22.407Z,18.17
2022-12-24T17:09:49.468Z,25.20
2022-12-24T17:12:16.763Z,23.67
2022-12-24T17:14:43.903Z,23.77
2022-12-24T17:17:28.012Z,28.80
2022-12-24T17:19:56.215Z,25.57
2022-12-24T17:22:24.826Z,30.60
2022-12-24T17:24:51.826Z,30.27
2022-12-24T17:27:19.029Z,26.03
2022-12-24T17:29:46.152Z,27.93
2022-12-24T17:32:13.304Z,23.20
2022-12-24T17:34:40.506Z,29.43
2022-12-24T17:37:07.567Z,31.13
2022-12-24T17:39:34.660Z,21.40
2022-12-24T17:42:01.763Z,23.03
2022-12-24T17:44:28.801Z,23.13
2022-12-24T17:46:55.935Z,25.77
2022-12-24T17:49:23.102Z,20.03
2022-12-24T17:51:50.120Z,25.23
2022-12-24T17:54:17.249Z,26.33
2022-12-24T17:56:44.396Z,30.10
2022-12-24T17:59:11.407Z,30.37
2022-12-24T18:01:38.562Z,33.33
2022-12-24T18:04:06.199Z,28.37
2022-12-24T18:06:33.823Z,22.50
2022-12-24T18:09:00.926Z,36.87
2022-12-24T18:11:34.824Z,30.70
2022-12-24T18:14:03.772Z,36.43
2022-12-24T18:16:36.739Z,35.20
2022-12-24T18:19:06.488Z,31.23
2022-12-24T18:21:34.437Z,31.67
2022-12-24T18:24:01.529Z,33.33
2022-12-24T18:26:30.548Z,27.90
2022-12-24T18:29:00.184Z,36.40
2022-12-24T18:31:29.648Z,33.90
2022-12-24T18:33:57.096Z,34.20
2022-12-24T18:36:24.321Z,30.23
2022-12-24T18:38:52.144Z,35.30
2022-12-24T18:41:24.110Z,30.17
2022-12-24T18:43:52.018Z,31.73
2022-12-24T18:46:25.739Z,32.23
2022-12-24T18:48:54.612Z,28.33
2022-12-24T18:51:24.289Z,39.97
2022-12-24T18:53:51.945Z,31.80
2022-12-24T18:56:23.367Z,28.33
2022-12-24T18:58:58.556Z,29.30
2022-12-24T19:01:29.884Z,29.90
2022-12-24T19:03:57.612Z,31.20
2022-12-24T19:06:25.373Z,39.10
2022-12-24T19:09:01.781Z,41.87
2022-12-24T19:11:34.261Z,38.23
2022-12-24T19:14:03.402Z,35.03
2022-12-24T19:16:37.457Z,37.77
2022-12-24T19:19:07.406Z,34.97
2022-12-24T19:21:34.817Z,32.57
2022-12-24T19:24:02.156Z,29.60
2022-12-24T19:26:29.302Z,36.53
2022-12-24T19:28:56.276Z,35.57
2022-12-24T19:31:25.820Z,40.87
2022-12-24T19:33:56.173Z,29.23
2022-12-24T19:36:27.008Z,34.27
2022-12-24T19:38:57.170Z,38.47
2022-12-24T19:41:27.334Z,39.53
2022-12-24T19:43:57.766Z,37.13
2022-12-24T19:46:29.178Z,38.80
2022-12-24T19:49:04.998Z,41.60
2022-12-24T19:51:32.537Z,37.33
2022-12-24T19:54:00.963Z,39.10
2022-12-24T19:56:30.953Z,40.77
2022-12-24T19:59:00.054Z,34.00
2022-12-24T20:01:30.964Z,35.87
2022-12-24T20:03:58.224Z,27.63
2022-12-24T20:06:33.081Z,42.20
2022-12-24T20:09:04.883Z,36.70
2022-12-24T20:11:33.106Z,28.17
2022-12-24T20:14:02.894Z,38.33
2022-12-24T20:16:30.595Z,29.63
2022-12-24T20:19:01.502Z,35.93
2022-12-24T20:21:30.368Z,37.37
2022-12-24T20:23:57.399Z,38.57
2022-12-24T20:26:28.755Z,35.10
2022-12-24T20:28:56.073Z,35.97
2022-12-24T20:31:29.396Z,37.80
2022-12-24T20:33:58.050Z,37.27
2022-12-24T20:36:27.152Z,39.20
2022-12-24T20:38:54.349Z,35.10
2022-12-24T20:41:24.771Z,39.07
2022-12-24T20:43:51.906Z,38.07
2022-12-24T20:46:22.979Z,39.20
2022-12-24T20:48:50.543Z,35.97
2022-12-24T20:51:24.887Z,37.70
2022-12-24T20:53:55.549Z,34.53
2022-12-24T20:56:23.858Z,35.87
2022-12-24T20:58:51.453Z,33.07
2022-12-24T21:01:25.007Z,34.03
2022-12-24T21:03:54.313Z,31.83
2022-12-24T21:06:23.581Z,34.13
2022-12-24T21:08:53.398Z,34.90
2022-12-24T21:11:40.797Z,41.43
2022-12-24T21:14:08.497Z,29.33
2022-12-24T21:16:37.098Z,35.40
2022-12-24T21:19:06.328Z,37.07
2022-12-24T21:21:35.294Z,34.43
2022-12-24T21:24:03.916Z,35.67
2022-12-24T21:26:32.210Z,33.63
2022-12-24T21:29:00.198Z,35.83
2022-12-24T21:31:27.989Z,30.60
2022-12-24T21:33:56.530Z,34.40
2022-12-24T21:36:24.649Z,26.30
2022-12-24T21:38:52.549Z,37.53
2022-12-24T21:41:24.631Z,25.27
2022-12-24T21:43:52.241Z,32.37
2022-12-24T21:46:25.074Z,30.13
2022-12-24T21:49:12.475Z,28.70
2022-12-24T21:51:39.947Z,24.90
2022-12-24T21:54:26.097Z,28.70
2022-12-24T21:57:19.205Z,31.90
2022-12-24T21:59:46.624Z,24.90
2022-12-24T22:02:16.183Z,30.97
2022-12-24T22:04:43.664Z,29.23
2022-12-24T22:07:38.003Z,29.63
2022-12-24T22:10:24.490Z,26.07
2022-12-24T22:12:51.590Z,29.90
2022-12-24T22:15:18.735Z,36.97
2022-12-24T22:17:45.881Z,36.97
2022-12-24T22:20:13.152Z,34.37
2022-12-24T22:22:40.172Z,24.20
2022-12-24T22:25:07.705Z,28.53
2022-12-24T22:27:34.802Z,24.60
2022-12-24T22:30:01.871Z,26.30
2022-12-24T22:32:28.871Z,22.93
2022-12-24T22:34:55.866Z,26.80
2022-12-24T22:37:22.964Z,23.90
2022-12-24T22:39:50.071Z,28.80
2022-12-24T22:42:17.734Z,22.57
2022-12-24T22:44:44.780Z,27.60
2022-12-24T22:47:11.796Z,18.97
2022-12-24T22:49:38.808Z,22.50
2022-12-24T22:52:05.885Z,22.20
2022-12-24T22:54:33.047Z,22.57
2022-12-24T22:57:00.234Z,27.63
2022-12-24T22:59:27.315Z,30.13
2022-12-24T23:01:55.875Z,23.80
2022-12-24T23:04:23.178Z,22.83
2022-12-24T23:06:50.360Z,24.60
2022-12-24T23:09:17.956Z,25.67
2022-12-24T23:11:45.601Z,23.33
2022-12-24T23:14:38.111Z,25.63
2022-12-24T23:17:06.236Z,20.63
2022-12-24T23:19:34.133Z,22.03
2022-12-24T23:22:03.338Z,23.80
2022-12-24T23:24:31.174Z,29.00
2022-12-24T23:27:01.371Z,24.77
2022-12-24T23:29:30.071Z,20.30
2022-12-24T23:31:57.968Z,19.23
2022-12-24T23:34:25.613Z,21.67
2022-12-24T23:36:52.693Z,21.50
2022-12-24T23:39:19.743Z,27.90
2022-12-24T23:41:46.700Z,14.87
2022-12-24T23:44:13.893Z,22.00
2022-12-24T23:46:40.978Z,24.13
2022-12-24T23:49:08.150Z,19.77
2022-12-24T23:51:35.377Z,21.40
2022-12-24T23:54:02.419Z,19.90
2022-12-24T23:56:29.535Z,15.57
2022-12-24T23:58:56.627Z,15.60
